sensor_id;sensor_type;location;lat;lon;timestamp;P1;durP1;ratioP1;P2;durP2;ratioP2
80539;SDS011;69869;48.036;15.780;2023-06-14T00:00:38;2.75;;;2.30;;
80539;SDS011;69869;48.036;15.780;2023-06-14T00:03:06;4.13;;;2.38;;
80539;SDS011;69869;48.036;15.780;2023-06-14T00:05:34;3.13;;;2.80;;
80539;SDS011;69869;48.036;15.780;2023-06-14T00:10:35;7.50;;;2.65;;
80539;SDS011;69869;48.036;15.780;2023-06-14T00:13:01;3.03;;;2.65;;
80539;SDS011;69869;48.036;15.780;2023-06-14T00:15:28;4.88;;;2.35;;
80539;SDS011;69869;48.036;15.780;2023-06-14T00:17:54;4.57;;;2.78;;
80539;SDS011;69869;48.036;15.780;2023-06-14T00:20:20;4.22;;;2.53;;
80539;SDS011;69869;48.036;15.780;2023-06-14T00:22:45;2.92;;;2.50;;
80539;SDS011;69869;48.036;15.780;2023-06-14T00:25:13;2.70;;;2.50;;
80539;SDS011;69869;48.036;15.780;2023-06-14T00:27:38;3.85;;;2.38;;
80539;SDS011;69869;48.036;15.780;2023-06-14T00:30:04;2.60;;;2.40;;
80539;SDS011;69869;48.036;15.780;2023-06-14T00:32:30;2.92;;;2.50;;
80539;SDS011;69869;48.036;15.780;2023-06-14T00:34:56;3.60;;;2.55;;
80539;SDS011;69869;48.036;15.780;2023-06-14T00:37:21;3.60;;;2.63;;
80539;SDS011;69869;48.036;15.780;2023-06-14T00:39:47;4.38;;;2.50;;
80539;SDS011;69869;48.036;15.780;2023-06-14T00:42:22;5.97;;;2.83;;
80539;SDS011;69869;48.036;15.780;2023-06-14T00:44:51;2.72;;;2.40;;
80539;SDS011;69869;48.036;15.780;2023-06-14T00:47:17;2.90;;;2.58;;
80539;SDS011;69869;48.036;15.780;2023-06-14T00:49:45;2.70;;;2.50;;
80539;SDS011;69869;48.036;15.780;2023-06-14T00:52:12;3.00;;;2.45;;
80539;SDS011;69869;48.036;15.780;2023-06-14T00:54:40;4.05;;;2.35;;
80539;SDS011;69869;48.036;15.780;2023-06-14T00:57:06;3.83;;;2.47;;
80539;SDS011;69869;48.036;15.780;2023-06-14T00:59:32;3.33;;;2.30;;
80539;SDS011;69869;48.036;15.780;2023-06-14T01:01:59;3.67;;;2.47;;
80539;SDS011;69869;48.036;15.780;2023-06-14T01:04:24;3.47;;;2.40;;
80539;SDS011;69869;48.036;15.780;2023-06-14T01:07:10;7.15;;;2.30;;
80539;SDS011;69869;48.036;15.780;2023-06-14T01:15:37;10.40;;;2.38;;
80539;SDS011;69869;48.036;15.780;2023-06-14T01:18:04;6.78;;;2.78;;
80539;SDS011;69869;48.036;15.780;2023-06-14T01:20:31;8.20;;;2.80;;
80539;SDS011;69869;48.036;15.780;2023-06-14T01:22:58;3.80;;;2.40;;
80539;SDS011;69869;48.036;15.780;2023-06-14T01:25:24;3.30;;;2.60;;
80539;SDS011;69869;48.036;15.780;2023-06-14T01:27:52;4.05;;;2.55;;
80539;SDS011;69869;48.036;15.780;2023-06-14T01:30:22;2.80;;;2.60;;
80539;SDS011;69869;48.036;15.780;2023-06-14T01:32:50;3.22;;;2.65;;
80539;SDS011;69869;48.036;15.780;2023-06-14T01:35:17;4.50;;;2.60;;
80539;SDS011;69869;48.036;15.780;2023-06-14T01:37:43;2.97;;;2.58;;
80539;SDS011;69869;48.036;15.780;2023-06-14T01:40:10;2.92;;;2.65;;
80539;SDS011;69869;48.036;15.780;2023-06-14T01:42:37;3.78;;;2.53;;
80539;SDS011;69869;48.036;15.780;2023-06-14T01:45:04;4.25;;;2.40;;
80539;SDS011;69869;48.036;15.780;2023-06-14T01:47:33;3.08;;;2.53;;
80539;SDS011;69869;48.036;15.780;2023-06-14T01:50:01;4.25;;;2.55;;
80539;SDS011;69869;48.036;15.780;2023-06-14T01:52:27;3.22;;;2.65;;
80539;SDS011;69869;48.036;15.780;2023-06-14T01:54:53;2.55;;;2.33;;
80539;SDS011;69869;48.036;15.780;2023-06-14T01:57:18;3.53;;;2.70;;
80539;SDS011;69869;48.036;15.780;2023-06-14T01:59:45;3.83;;;2.70;;
80539;SDS011;69869;48.036;15.780;2023-06-14T02:02:14;2.88;;;2.63;;
80539;SDS011;69869;48.036;15.780;2023-06-14T02:04:40;2.80;;;2.50;;
80539;SDS011;69869;48.036;15.780;2023-06-14T02:07:06;3.53;;;2.80;;
80539;SDS011;69869;48.036;15.780;2023-06-14T02:09:33;4.72;;;2.83;;
80539;SDS011;69869;48.036;15.780;2023-06-14T02:11:59;6.32;;;2.60;;
80539;SDS011;69869;48.036;15.780;2023-06-14T02:14:25;22.50;;;3.10;;
80539;SDS011;69869;48.036;15.780;2023-06-14T02:16:52;8.75;;;2.63;;
80539;SDS011;69869;48.036;15.780;2023-06-14T02:19:18;8.60;;;2.58;;
80539;SDS011;69869;48.036;15.780;2023-06-14T02:21:45;4.70;;;2.65;;
80539;SDS011;69869;48.036;15.780;2023-06-14T02:24:11;6.32;;;2.40;;
80539;SDS011;69869;48.036;15.780;2023-06-14T02:26:37;3.78;;;2.38;;
80539;SDS011;69869;48.036;15.780;2023-06-14T02:29:03;5.00;;;2.80;;
80539;SDS011;69869;48.036;15.780;2023-06-14T02:31:34;3.75;;;2.88;;
80539;SDS011;69869;48.036;15.780;2023-06-14T02:34:01;5.57;;;2.35;;
80539;SDS011;69869;48.036;15.780;2023-06-14T02:36:27;3.75;;;2.63;;
80539;SDS011;69869;48.036;15.780;2023-06-14T02:38:54;3.65;;;2.55;;
80539;SDS011;69869;48.036;15.780;2023-06-14T02:41:22;3.40;;;2.90;;
80539;SDS011;69869;48.036;15.780;2023-06-14T02:43:51;2.83;;;2.60;;
80539;SDS011;69869;48.036;15.780;2023-06-14T02:46:18;6.00;;;2.60;;
80539;SDS011;69869;48.036;15.780;2023-06-14T02:48:43;5.47;;;2.50;;
80539;SDS011;69869;48.036;15.780;2023-06-14T02:51:09;4.88;;;2.72;;
80539;SDS011;69869;48.036;15.780;2023-06-14T02:53:35;4.82;;;2.83;;
80539;SDS011;69869;48.036;15.780;2023-06-14T02:56:04;2.80;;;2.50;;
80539;SDS011;69869;48.036;15.780;2023-06-14T02:58:30;2.90;;;2.60;;
80539;SDS011;69869;48.036;15.780;2023-06-14T03:00:56;2.90;;;2.35;;
80539;SDS011;69869;48.036;15.780;2023-06-14T03:03:22;3.28;;;2.75;;
80539;SDS011;69869;48.036;15.780;2023-06-14T03:05:49;2.83;;;2.60;;
80539;SDS011;69869;48.036;15.780;2023-06-14T03:08:16;3.53;;;2.72;;
80539;SDS011;69869;48.036;15.780;2023-06-14T03:10:44;3.92;;;2.60;;
80539;SDS011;69869;48.036;15.780;2023-06-14T03:13:11;3.30;;;2.80;;
80539;SDS011;69869;48.036;15.780;2023-06-14T03:15:37;2.97;;;2.53;;
80539;SDS011;69869;48.036;15.780;2023-06-14T03:18:03;7.97;;;2.60;;
80539;SDS011;69869;48.036;15.780;2023-06-14T03:20:29;2.70;;;2.50;;
80539;SDS011;69869;48.036;15.780;2023-06-14T03:22:58;2.85;;;2.65;;
80539;SDS011;69869;48.036;15.780;2023-06-14T03:25:28;4.25;;;2.95;;
80539;SDS011;69869;48.036;15.780;2023-06-14T03:27:57;3.17;;;2.88;;
80539;SDS011;69869;48.036;15.780;2023-06-14T03:30:23;4.03;;;2.70;;
80539;SDS011;69869;48.036;15.780;2023-06-14T03:32:49;3.42;;;2.45;;
80539;SDS011;69869;48.036;15.780;2023-06-14T03:35:17;4.20;;;2.60;;
80539;SDS011;69869;48.036;15.780;2023-06-14T03:37:44;4.03;;;2.70;;
80539;SDS011;69869;48.036;15.780;2023-06-14T03:40:11;5.63;;;2.72;;
80539;SDS011;69869;48.036;15.780;2023-06-14T03:42:38;11.93;;;2.75;;
80539;SDS011;69869;48.036;15.780;2023-06-14T03:45:04;7.40;;;2.78;;
80539;SDS011;69869;48.036;15.780;2023-06-14T03:47:31;7.38;;;3.00;;
80539;SDS011;69869;48.036;15.780;2023-06-14T03:49:57;10.32;;;3.00;;
80539;SDS011;69869;48.036;15.780;2023-06-14T03:52:23;5.25;;;2.90;;
80539;SDS011;69869;48.036;15.780;2023-06-14T03:54:48;8.23;;;3.05;;
80539;SDS011;69869;48.036;15.780;2023-06-14T03:57:14;8.65;;;3.10;;
80539;SDS011;69869;48.036;15.780;2023-06-14T03:59:40;8.52;;;3.03;;
80539;SDS011;69869;48.036;15.780;2023-06-14T04:02:06;5.68;;;2.78;;
80539;SDS011;69869;48.036;15.780;2023-06-14T04:04:34;6.20;;;3.22;;
80539;SDS011;69869;48.036;15.780;2023-06-14T04:07:00;6.53;;;3.35;;
80539;SDS011;69869;48.036;15.780;2023-06-14T04:09:28;3.63;;;3.28;;
80539;SDS011;69869;48.036;15.780;2023-06-14T04:11:54;8.70;;;3.80;;
80539;SDS011;69869;48.036;15.780;2023-06-14T04:14:20;3.95;;;3.50;;
80539;SDS011;69869;48.036;15.780;2023-06-14T04:16:47;6.88;;;3.63;;
80539;SDS011;69869;48.036;15.780;2023-06-14T04:19:13;7.88;;;3.65;;
80539;SDS011;69869;48.036;15.780;2023-06-14T04:21:39;6.30;;;3.50;;
80539;SDS011;69869;48.036;15.780;2023-06-14T04:24:05;5.30;;;3.55;;
80539;SDS011;69869;48.036;15.780;2023-06-14T04:26:31;7.30;;;3.75;;
80539;SDS011;69869;48.036;15.780;2023-06-14T04:28:58;5.50;;;4.20;;
80539;SDS011;69869;48.036;15.780;2023-06-14T04:31:30;4.43;;;3.55;;
80539;SDS011;69869;48.036;15.780;2023-06-14T04:36:24;4.88;;;3.60;;
80539;SDS011;69869;48.036;15.780;2023-06-14T04:38:52;4.47;;;3.60;;
80539;SDS011;69869;48.036;15.780;2023-06-14T04:41:20;5.18;;;3.65;;
80539;SDS011;69869;48.036;15.780;2023-06-14T04:43:48;6.68;;;3.80;;
80539;SDS011;69869;48.036;15.780;2023-06-14T04:46:14;4.93;;;3.70;;
80539;SDS011;69869;48.036;15.780;2023-06-14T04:48:40;9.60;;;3.75;;
80539;SDS011;69869;48.036;15.780;2023-06-14T04:51:08;10.45;;;3.58;;
80539;SDS011;69869;48.036;15.780;2023-06-14T04:53:34;8.38;;;3.53;;
80539;SDS011;69869;48.036;15.780;2023-06-14T04:55:59;18.27;;;3.80;;
80539;SDS011;69869;48.036;15.780;2023-06-14T04:58:26;12.60;;;3.70;;
80539;SDS011;69869;48.036;15.780;2023-06-14T05:00:53;7.55;;;3.30;;
80539;SDS011;69869;48.036;15.780;2023-06-14T05:03:21;8.18;;;3.40;;
80539;SDS011;69869;48.036;15.780;2023-06-14T05:05:48;5.00;;;3.50;;
80539;SDS011;69869;48.036;15.780;2023-06-14T05:08:15;8.40;;;3.40;;
80539;SDS011;69869;48.036;15.780;2023-06-14T05:10:41;9.65;;;3.20;;
80539;SDS011;69869;48.036;15.780;2023-06-14T05:13:07;9.15;;;3.42;;
80539;SDS011;69869;48.036;15.780;2023-06-14T05:15:33;9.82;;;3.60;;
80539;SDS011;69869;48.036;15.780;2023-06-14T05:17:59;6.63;;;3.40;;
80539;SDS011;69869;48.036;15.780;2023-06-14T05:20:25;5.10;;;3.60;;
80539;SDS011;69869;48.036;15.780;2023-06-14T05:22:54;6.53;;;3.38;;
80539;SDS011;69869;48.036;15.780;2023-06-14T05:25:21;7.35;;;3.40;;
80539;SDS011;69869;48.036;15.780;2023-06-14T05:27:47;5.47;;;3.55;;
80539;SDS011;69869;48.036;15.780;2023-06-14T05:30:14;5.80;;;3.28;;
80539;SDS011;69869;48.036;15.780;2023-06-14T05:32:40;9.10;;;3.60;;
80539;SDS011;69869;48.036;15.780;2023-06-14T05:35:06;7.10;;;3.30;;
80539;SDS011;69869;48.036;15.780;2023-06-14T05:37:32;6.05;;;3.35;;
80539;SDS011;69869;48.036;15.780;2023-06-14T05:39:58;4.88;;;3.22;;
80539;SDS011;69869;48.036;15.780;2023-06-14T05:42:24;8.20;;;3.35;;
80539;SDS011;69869;48.036;15.780;2023-06-14T05:44:49;5.03;;;3.35;;
80539;SDS011;69869;48.036;15.780;2023-06-14T05:47:15;4.40;;;3.35;;
80539;SDS011;69869;48.036;15.780;2023-06-14T05:49:41;6.10;;;3.45;;
80539;SDS011;69869;48.036;15.780;2023-06-14T05:52:07;6.38;;;3.30;;
80539;SDS011;69869;48.036;15.780;2023-06-14T05:54:33;3.97;;;3.15;;
80539;SDS011;69869;48.036;15.780;2023-06-14T05:56:58;6.00;;;3.33;;
80539;SDS011;69869;48.036;15.780;2023-06-14T05:59:26;5.28;;;3.20;;
80539;SDS011;69869;48.036;15.780;2023-06-14T06:01:52;9.07;;;3.17;;
80539;SDS011;69869;48.036;15.780;2023-06-14T06:04:18;4.43;;;2.97;;
80539;SDS011;69869;48.036;15.780;2023-06-14T06:06:45;5.35;;;3.20;;
80539;SDS011;69869;48.036;15.780;2023-06-14T06:09:11;5.45;;;3.55;;
80539;SDS011;69869;48.036;15.780;2023-06-14T06:11:39;5.05;;;3.22;;
80539;SDS011;69869;48.036;15.780;2023-06-14T06:14:05;4.80;;;3.47;;
80539;SDS011;69869;48.036;15.780;2023-06-14T06:16:30;5.05;;;3.47;;
80539;SDS011;69869;48.036;15.780;2023-06-14T06:18:56;3.45;;;3.15;;
80539;SDS011;69869;48.036;15.780;2023-06-14T06:21:21;6.18;;;3.40;;
80539;SDS011;69869;48.036;15.780;2023-06-14T06:23:47;5.70;;;3.00;;
80539;SDS011;69869;48.036;15.780;2023-06-14T06:26:13;4.03;;;3.22;;
80539;SDS011;69869;48.036;15.780;2023-06-14T06:28:38;3.30;;;3.00;;
80539;SDS011;69869;48.036;15.780;2023-06-14T06:31:04;4.32;;;3.40;;
80539;SDS011;69869;48.036;15.780;2023-06-14T06:33:30;4.60;;;2.90;;
80539;SDS011;69869;48.036;15.780;2023-06-14T06:35:56;3.55;;;2.95;;
80539;SDS011;69869;48.036;15.780;2023-06-14T06:38:21;4.43;;;2.97;;
80539;SDS011;69869;48.036;15.780;2023-06-14T06:40:47;5.13;;;3.03;;
80539;SDS011;69869;48.036;15.780;2023-06-14T06:43:13;4.85;;;3.17;;
80539;SDS011;69869;48.036;15.780;2023-06-14T06:45:39;4.53;;;3.33;;
80539;SDS011;69869;48.036;15.780;2023-06-14T06:48:05;3.70;;;3.00;;
80539;SDS011;69869;48.036;15.780;2023-06-14T06:50:30;6.32;;;3.08;;
80539;SDS011;69869;48.036;15.780;2023-06-14T06:52:56;4.57;;;3.03;;
80539;SDS011;69869;48.036;15.780;2023-06-14T06:55:22;5.60;;;3.20;;
80539;SDS011;69869;48.036;15.780;2023-06-14T06:57:48;5.35;;;3.00;;
80539;SDS011;69869;48.036;15.780;2023-06-14T07:00:15;4.05;;;3.05;;
80539;SDS011;69869;48.036;15.780;2023-06-14T07:02:41;4.82;;;3.13;;
80539;SDS011;69869;48.036;15.780;2023-06-14T07:05:07;3.97;;;2.90;;
80539;SDS011;69869;48.036;15.780;2023-06-14T07:07:33;6.25;;;2.80;;
80539;SDS011;69869;48.036;15.780;2023-06-14T07:09:59;4.85;;;3.05;;
80539;SDS011;69869;48.036;15.780;2023-06-14T07:12:25;3.28;;;2.97;;
80539;SDS011;69869;48.036;15.780;2023-06-14T07:14:51;3.70;;;3.00;;
80539;SDS011;69869;48.036;15.780;2023-06-14T07:17:16;7.63;;;3.20;;
80539;SDS011;69869;48.036;15.780;2023-06-14T07:19:42;5.03;;;2.97;;
80539;SDS011;69869;48.036;15.780;2023-06-14T07:22:08;3.15;;;2.80;;
80539;SDS011;69869;48.036;15.780;2023-06-14T07:24:33;3.95;;;2.80;;
80539;SDS011;69869;48.036;15.780;2023-06-14T07:27:01;9.05;;;2.80;;
80539;SDS011;69869;48.036;15.780;2023-06-14T07:29:28;3.28;;;2.97;;
80539;SDS011;69869;48.036;15.780;2023-06-14T07:31:53;3.80;;;2.90;;
80539;SDS011;69869;48.036;15.780;2023-06-14T07:34:19;3.53;;;2.90;;
80539;SDS011;69869;48.036;15.780;2023-06-14T07:36:45;5.20;;;2.85;;
80539;SDS011;69869;48.036;15.780;2023-06-14T07:39:11;7.63;;;3.00;;
80539;SDS011;69869;48.036;15.780;2023-06-14T07:41:37;3.20;;;2.90;;
80539;SDS011;69869;48.036;15.780;2023-06-14T07:44:02;4.53;;;2.80;;
80539;SDS011;69869;48.036;15.780;2023-06-14T07:46:28;7.55;;;2.78;;
80539;SDS011;69869;48.036;15.780;2023-06-14T07:48:55;4.70;;;2.55;;
80539;SDS011;69869;48.036;15.780;2023-06-14T07:51:20;3.58;;;2.80;;
80539;SDS011;69869;48.036;15.780;2023-06-14T07:53:47;8.45;;;3.25;;
80539;SDS011;69869;48.036;15.780;2023-06-14T07:56:13;5.18;;;3.00;;
80539;SDS011;69869;48.036;15.780;2023-06-14T07:58:39;5.72;;;3.00;;
80539;SDS011;69869;48.036;15.780;2023-06-14T08:01:05;6.20;;;2.67;;
80539;SDS011;69869;48.036;15.780;2023-06-14T08:03:32;8.43;;;2.92;;
80539;SDS011;69869;48.036;15.780;2023-06-14T08:05:59;7.05;;;3.00;;
80539;SDS011;69869;48.036;15.780;2023-06-14T08:08:25;6.95;;;3.03;;
80539;SDS011;69869;48.036;15.780;2023-06-14T08:10:51;7.40;;;2.78;;
80539;SDS011;69869;48.036;15.780;2023-06-14T08:13:17;8.40;;;2.92;;
80539;SDS011;69869;48.036;15.780;2023-06-14T08:15:43;6.03;;;2.70;;
80539;SDS011;69869;48.036;15.780;2023-06-14T08:18:09;6.30;;;3.00;;
80539;SDS011;69869;48.036;15.780;2023-06-14T08:20:35;61.55;;;4.28;;
80539;SDS011;69869;48.036;15.780;2023-06-14T08:23:02;41.13;;;3.75;;
80539;SDS011;69869;48.036;15.780;2023-06-14T08:25:29;18.05;;;3.40;;
80539;SDS011;69869;48.036;15.780;2023-06-14T08:27:55;18.45;;;3.10;;
80539;SDS011;69869;48.036;15.780;2023-06-14T08:30:21;15.93;;;2.72;;
80539;SDS011;69869;48.036;15.780;2023-06-14T08:32:47;11.05;;;2.92;;
80539;SDS011;69869;48.036;15.780;2023-06-14T08:35:12;5.03;;;2.72;;
80539;SDS011;69869;48.036;15.780;2023-06-14T08:37:41;7.53;;;2.83;;
80539;SDS011;69869;48.036;15.780;2023-06-14T08:40:29;8.82;;;3.00;;
80539;SDS011;69869;48.036;15.780;2023-06-14T08:42:54;5.65;;;2.75;;
80539;SDS011;69869;48.036;15.780;2023-06-14T08:45:21;6.72;;;2.67;;
80539;SDS011;69869;48.036;15.780;2023-06-14T08:47:48;5.53;;;3.00;;
80539;SDS011;69869;48.036;15.780;2023-06-14T08:50:22;6.55;;;2.70;;
80539;SDS011;69869;48.036;15.780;2023-06-14T08:52:55;5.35;;;2.92;;
80539;SDS011;69869;48.036;15.780;2023-06-14T08:55:23;4.03;;;3.03;;
80539;SDS011;69869;48.036;15.780;2023-06-14T08:57:53;5.60;;;3.03;;
80539;SDS011;69869;48.036;15.780;2023-06-14T09:00:20;6.20;;;2.88;;
80539;SDS011;69869;48.036;15.780;2023-06-14T09:02:47;5.57;;;3.10;;
80539;SDS011;69869;48.036;15.780;2023-06-14T09:05:13;4.40;;;2.80;;
80539;SDS011;69869;48.036;15.780;2023-06-14T09:07:39;3.60;;;2.80;;
80539;SDS011;69869;48.036;15.780;2023-06-14T09:10:07;4.68;;;3.35;;
80539;SDS011;69869;48.036;15.780;2023-06-14T09:12:35;8.45;;;3.00;;
80539;SDS011;69869;48.036;15.780;2023-06-14T09:15:00;6.47;;;2.80;;
80539;SDS011;69869;48.036;15.780;2023-06-14T09:17:31;4.30;;;2.92;;
80539;SDS011;69869;48.036;15.780;2023-06-14T09:19:58;5.03;;;3.10;;
80539;SDS011;69869;48.036;15.780;2023-06-14T09:22:24;6.95;;;2.95;;
80539;SDS011;69869;48.036;15.780;2023-06-14T09:24:49;44.78;;;8.00;;
80539;SDS011;69869;48.036;15.780;2023-06-14T09:27:15;54.95;;;12.25;;
80539;SDS011;69869;48.036;15.780;2023-06-14T09:29:41;36.20;;;8.45;;
80539;SDS011;69869;48.036;15.780;2023-06-14T09:32:06;31.85;;;8.40;;
80539;SDS011;69869;48.036;15.780;2023-06-14T09:34:33;39.25;;;10.52;;
80539;SDS011;69869;48.036;15.780;2023-06-14T09:37:00;23.63;;;7.25;;
80539;SDS011;69869;48.036;15.780;2023-06-14T09:39:26;17.02;;;5.75;;
80539;SDS011;69869;48.036;15.780;2023-06-14T09:41:52;12.70;;;5.18;;
80539;SDS011;69869;48.036;15.780;2023-06-14T09:44:17;15.38;;;5.78;;
80539;SDS011;69869;48.036;15.780;2023-06-14T09:46:45;10.95;;;5.05;;
80539;SDS011;69869;48.036;15.780;2023-06-14T09:49:11;13.40;;;5.43;;
80539;SDS011;69869;48.036;15.780;2023-06-14T09:51:42;16.65;;;6.43;;
80539;SDS011;69869;48.036;15.780;2023-06-14T09:54:11;17.70;;;7.38;;
80539;SDS011;69869;48.036;15.780;2023-06-14T09:56:42;11.20;;;5.35;;
80539;SDS011;69869;48.036;15.780;2023-06-14T09:59:10;13.05;;;6.10;;
80539;SDS011;69869;48.036;15.780;2023-06-14T10:01:42;17.17;;;6.00;;
80539;SDS011;69869;48.036;15.780;2023-06-14T10:06:43;5.75;;;3.60;;
80539;SDS011;69869;48.036;15.780;2023-06-14T10:09:11;7.22;;;4.20;;
80539;SDS011;69869;48.036;15.780;2023-06-14T10:11:37;9.02;;;3.92;;
80539;SDS011;69869;48.036;15.780;2023-06-14T10:14:08;4.53;;;3.50;;
80539;SDS011;69869;48.036;15.780;2023-06-14T10:19:32;4.32;;;3.20;;
80539;SDS011;69869;48.036;15.780;2023-06-14T10:22:06;5.35;;;3.47;;
80539;SDS011;69869;48.036;15.780;2023-06-14T10:24:45;5.43;;;3.60;;
80539;SDS011;69869;48.036;15.780;2023-06-14T10:27:13;4.57;;;3.25;;
80539;SDS011;69869;48.036;15.780;2023-06-14T10:30:12;3.67;;;3.20;;
80539;SDS011;69869;48.036;15.780;2023-06-14T10:32:32;5.07;;;2.80;;
80539;SDS011;69869;48.036;15.780;2023-06-14T10:34:59;6.10;;;3.55;;
80539;SDS011;69869;48.036;15.780;2023-06-14T10:37:28;8.63;;;3.53;;
80539;SDS011;69869;48.036;15.780;2023-06-14T10:39:54;7.03;;;3.58;;
80539;SDS011;69869;48.036;15.780;2023-06-14T10:42:20;20.55;;;5.43;;
80539;SDS011;69869;48.036;15.780;2023-06-14T10:44:54;22.30;;;6.95;;
80539;SDS011;69869;48.036;15.780;2023-06-14T10:47:27;18.08;;;6.85;;
80539;SDS011;69869;48.036;15.780;2023-06-14T10:50:05;19.70;;;6.90;;
80539;SDS011;69869;48.036;15.780;2023-06-14T10:52:40;23.13;;;6.57;;
80539;SDS011;69869;48.036;15.780;2023-06-14T10:57:40;9.20;;;4.53;;
80539;SDS011;69869;48.036;15.780;2023-06-14T11:00:08;9.57;;;4.40;;
80539;SDS011;69869;48.036;15.780;2023-06-14T11:05:16;20.20;;;6.20;;
80539;SDS011;69869;48.036;15.780;2023-06-14T11:10:37;12.30;;;4.97;;
80539;SDS011;69869;48.036;15.780;2023-06-14T11:13:03;8.73;;;4.28;;
80539;SDS011;69869;48.036;15.780;2023-06-14T11:15:30;6.50;;;3.85;;
80539;SDS011;69869;48.036;15.780;2023-06-14T11:17:57;8.07;;;4.03;;
80539;SDS011;69869;48.036;15.780;2023-06-14T11:20:26;7.35;;;3.30;;
80539;SDS011;69869;48.036;15.780;2023-06-14T11:22:52;5.32;;;3.38;;
80539;SDS011;69869;48.036;15.780;2023-06-14T11:25:19;7.22;;;3.70;;
80539;SDS011;69869;48.036;15.780;2023-06-14T11:27:45;8.80;;;4.20;;
80539;SDS011;69869;48.036;15.780;2023-06-14T11:30:11;7.57;;;4.30;;
80539;SDS011;69869;48.036;15.780;2023-06-14T11:32:38;11.35;;;4.25;;
80539;SDS011;69869;48.036;15.780;2023-06-14T11:35:04;8.88;;;3.97;;
80539;SDS011;69869;48.036;15.780;2023-06-14T11:37:31;7.35;;;3.47;;
80539;SDS011;69869;48.036;15.780;2023-06-14T11:40:00;5.15;;;3.30;;
80539;SDS011;69869;48.036;15.780;2023-06-14T11:42:28;14.88;;;3.67;;
80539;SDS011;69869;48.036;15.780;2023-06-14T11:44:55;9.60;;;3.55;;
80539;SDS011;69869;48.036;15.780;2023-06-14T11:47:21;6.57;;;3.83;;
80539;SDS011;69869;48.036;15.780;2023-06-14T11:49:47;6.93;;;3.38;;
80539;SDS011;69869;48.036;15.780;2023-06-14T11:52:13;13.05;;;3.70;;
80539;SDS011;69869;48.036;15.780;2023-06-14T11:54:39;7.35;;;3.60;;
80539;SDS011;69869;48.036;15.780;2023-06-14T11:57:06;8.30;;;3.28;;
80539;SDS011;69869;48.036;15.780;2023-06-14T11:59:37;7.82;;;3.65;;
80539;SDS011;69869;48.036;15.780;2023-06-14T12:02:04;6.65;;;3.72;;
80539;SDS011;69869;48.036;15.780;2023-06-14T12:04:31;9.77;;;3.60;;
80539;SDS011;69869;48.036;15.780;2023-06-14T12:06:57;6.82;;;3.90;;
80539;SDS011;69869;48.036;15.780;2023-06-14T12:09:34;7.22;;;3.80;;
80539;SDS011;69869;48.036;15.780;2023-06-14T12:12:00;6.60;;;3.28;;
80539;SDS011;69869;48.036;15.780;2023-06-14T12:14:32;6.57;;;3.20;;
80539;SDS011;69869;48.036;15.780;2023-06-14T12:17:04;5.28;;;3.47;;
80539;SDS011;69869;48.036;15.780;2023-06-14T12:19:40;3.90;;;3.40;;
80539;SDS011;69869;48.036;15.780;2023-06-14T12:22:09;4.97;;;3.40;;
80539;SDS011;69869;48.036;15.780;2023-06-14T12:24:35;12.48;;;3.15;;
80539;SDS011;69869;48.036;15.780;2023-06-14T12:27:01;6.57;;;3.25;;
80539;SDS011;69869;48.036;15.780;2023-06-14T12:29:29;4.45;;;3.30;;
80539;SDS011;69869;48.036;15.780;2023-06-14T12:31:56;6.72;;;3.50;;
80539;SDS011;69869;48.036;15.780;2023-06-14T12:34:25;6.38;;;3.40;;
80539;SDS011;69869;48.036;15.780;2023-06-14T12:36:55;8.73;;;3.10;;
80539;SDS011;69869;48.036;15.780;2023-06-14T12:39:21;9.93;;;3.20;;
80539;SDS011;69869;48.036;15.780;2023-06-14T12:41:47;8.23;;;3.13;;
80539;SDS011;69869;48.036;15.780;2023-06-14T12:44:14;8.45;;;3.17;;
80539;SDS011;69869;48.036;15.780;2023-06-14T12:46:41;7.43;;;3.10;;
80539;SDS011;69869;48.036;15.780;2023-06-14T12:49:08;5.65;;;2.95;;
80539;SDS011;69869;48.036;15.780;2023-06-14T12:51:35;7.43;;;3.20;;
80539;SDS011;69869;48.036;15.780;2023-06-14T12:54:00;6.40;;;3.10;;
80539;SDS011;69869;48.036;15.780;2023-06-14T12:56:26;9.05;;;2.88;;
80539;SDS011;69869;48.036;15.780;2023-06-14T12:58:52;9.90;;;3.17;;
80539;SDS011;69869;48.036;15.780;2023-06-14T13:01:18;4.75;;;2.92;;
80539;SDS011;69869;48.036;15.780;2023-06-14T13:03:44;8.35;;;3.00;;
80539;SDS011;69869;48.036;15.780;2023-06-14T13:06:14;6.32;;;3.03;;
80539;SDS011;69869;48.036;15.780;2023-06-14T13:08:40;4.20;;;3.20;;
80539;SDS011;69869;48.036;15.780;2023-06-14T13:11:06;3.65;;;2.95;;
80539;SDS011;69869;48.036;15.780;2023-06-14T13:13:31;3.20;;;2.85;;
80539;SDS011;69869;48.036;15.780;2023-06-14T13:15:57;4.22;;;2.92;;
80539;SDS011;69869;48.036;15.780;2023-06-14T13:18:22;5.22;;;3.13;;
80539;SDS011;69869;48.036;15.780;2023-06-14T13:20:48;4.60;;;2.97;;
80539;SDS011;69869;48.036;15.780;2023-06-14T13:23:14;5.82;;;3.00;;
80539;SDS011;69869;48.036;15.780;2023-06-14T13:25:40;7.53;;;3.00;;
80539;SDS011;69869;48.036;15.780;2023-06-14T13:28:06;4.90;;;3.28;;
80539;SDS011;69869;48.036;15.780;2023-06-14T13:30:32;4.97;;;3.00;;
80539;SDS011;69869;48.036;15.780;2023-06-14T13:32:58;6.25;;;2.88;;
80539;SDS011;69869;48.036;15.780;2023-06-14T13:35:24;8.48;;;3.05;;
80539;SDS011;69869;48.036;15.780;2023-06-14T13:37:50;5.82;;;3.08;;
80539;SDS011;69869;48.036;15.780;2023-06-14T13:40:16;5.53;;;2.88;;
80539;SDS011;69869;48.036;15.780;2023-06-14T13:42:42;6.22;;;3.05;;
80539;SDS011;69869;48.036;15.780;2023-06-14T13:45:08;4.65;;;2.85;;
80539;SDS011;69869;48.036;15.780;2023-06-14T13:47:35;6.30;;;3.20;;
80539;SDS011;69869;48.036;15.780;2023-06-14T13:50:01;7.25;;;2.90;;
80539;SDS011;69869;48.036;15.780;2023-06-14T13:52:27;3.45;;;2.75;;
80539;SDS011;69869;48.036;15.780;2023-06-14T13:54:52;5.47;;;3.00;;
80539;SDS011;69869;48.036;15.780;2023-06-14T13:57:19;5.20;;;2.88;;
80539;SDS011;69869;48.036;15.780;2023-06-14T13:59:45;5.32;;;3.03;;
80539;SDS011;69869;48.036;15.780;2023-06-14T14:02:11;4.68;;;3.00;;
80539;SDS011;69869;48.036;15.780;2023-06-14T14:04:37;6.53;;;3.03;;
80539;SDS011;69869;48.036;15.780;2023-06-14T14:07:04;5.07;;;2.80;;
80539;SDS011;69869;48.036;15.780;2023-06-14T14:09:30;7.63;;;3.33;;
80539;SDS011;69869;48.036;15.780;2023-06-14T14:11:57;7.90;;;3.05;;
80539;SDS011;69869;48.036;15.780;2023-06-14T14:14:23;5.75;;;2.72;;
80539;SDS011;69869;48.036;15.780;2023-06-14T14:16:49;6.25;;;2.92;;
80539;SDS011;69869;48.036;15.780;2023-06-14T14:19:19;5.45;;;3.10;;
80539;SDS011;69869;48.036;15.780;2023-06-14T14:21:46;4.93;;;2.90;;
80539;SDS011;69869;48.036;15.780;2023-06-14T14:24:11;6.72;;;3.25;;
80539;SDS011;69869;48.036;15.780;2023-06-14T14:26:37;10.60;;;3.20;;
80539;SDS011;69869;48.036;15.780;2023-06-14T14:29:03;12.07;;;3.60;;
80539;SDS011;69869;48.036;15.780;2023-06-14T14:31:29;14.48;;;3.50;;
80539;SDS011;69869;48.036;15.780;2023-06-14T14:33:55;17.13;;;3.70;;
80539;SDS011;69869;48.036;15.780;2023-06-14T14:36:20;14.00;;;3.40;;
80539;SDS011;69869;48.036;15.780;2023-06-14T14:38:46;8.85;;;3.28;;
80539;SDS011;69869;48.036;15.780;2023-06-14T14:41:13;7.38;;;3.10;;
80539;SDS011;69869;48.036;15.780;2023-06-14T14:43:38;7.57;;;3.08;;
80539;SDS011;69869;48.036;15.780;2023-06-14T14:46:04;11.43;;;3.42;;
80539;SDS011;69869;48.036;15.780;2023-06-14T14:48:30;8.88;;;3.30;;
80539;SDS011;69869;48.036;15.780;2023-06-14T14:50:55;5.32;;;3.33;;
80539;SDS011;69869;48.036;15.780;2023-06-14T14:53:21;6.32;;;3.20;;
80539;SDS011;69869;48.036;15.780;2023-06-14T14:55:47;6.80;;;2.90;;